sensor_id;sensor_type;location;lat;lon;timestamp;pressure;altitude;pressure_sealevel;temperature;humidity
45731;BME280;31440;48.584;13.460;2022-09-09T00:00:32;96674.06;;;12.67;100.00
45731;BME280;31440;48.584;13.460;2022-09-09T00:03:12;96674.00;;;12.33;100.00
45731;BME280;31440;48.584;13.460;2022-09-09T00:06:20;96669.31;;;12.39;100.00
45731;BME280;31440;48.584;13.460;2022-09-09T00:08:58;96669.69;;;12.50;100.00
45731;BME280;31440;48.584;13.460;2022-09-09T00:11:58;96659.59;;;12.43;100.00
45731;BME280;31440;48.584;13.460;2022-09-09T00:14:30;96675.41;;;12.57;100.00
45731;BME280;31440;48.584;13.460;2022-09-09T00:17:04;96669.28;;;12.75;100.00
45731;BME280;31440;48.584;13.460;2022-09-09T00:24:43;96663.00;;;12.45;100.00
45731;BME280;31440;48.584;13.460;2022-09-09T00:29:45;96666.69;;;12.03;100.00
45731;BME280;31440;48.584;13.460;2022-09-09T00:32:16;96671.69;;;12.08;100.00
45731;BME280;31440;48.584;13.460;2022-09-09T00:34:48;96669.56;;;12.16;100.00
45731;BME280;31440;48.584;13.460;2022-09-09T00:37:14;96660.25;;;12.29;100.00
45731;BME280;31440;48.584;13.460;2022-09-09T00:39:43;96661.69;;;12.35;100.00
45731;BME280;31440;48.584;13.460;2022-09-09T00:42:20;96663.75;;;12.47;100.00
45731;BME280;31440;48.584;13.460;2022-09-09T00:44:55;96665.47;;;12.29;100.00
45731;BME280;31440;48.584;13.460;2022-09-09T00:58:12;96656.66;;;11.96;100.00
45731;BME280;31440;48.584;13.460;2022-09-09T01:00:51;96651.25;;;12.17;100.00
45731;BME280;31440;48.584;13.460;2022-09-09T01:12:23;96669.59;;;12.33;100.00
45731;BME280;31440;48.584;13.460;2022-09-09T01:14:56;96665.38;;;11.95;100.00
45731;BME280;31440;48.584;13.460;2022-09-09T01:17:33;96660.38;;;11.90;100.00
45731;BME280;31440;48.584;13.460;2022-09-09T01:20:15;96659.94;;;11.99;100.00
45731;BME280;31440;48.584;13.460;2022-09-09T01:26:32;96666.84;;;11.81;100.00
45731;BME280;31440;48.584;13.460;2022-09-09T01:29:08;96674.19;;;11.92;100.00
45731;BME280;31440;48.584;13.460;2022-09-09T01:31:55;96673.66;;;12.03;100.00
45731;BME280;31440;48.584;13.460;2022-09-09T01:34:23;96674.97;;;11.94;100.00
45731;BME280;31440;48.584;13.460;2022-09-09T01:37:04;96674.66;;;11.81;100.00
45731;BME280;31440;48.584;13.460;2022-09-09T01:39:33;96676.28;;;11.84;100.00
45731;BME280;31440;48.584;13.460;2022-09-09T01:42:05;96676.59;;;11.78;100.00
45731;BME280;31440;48.584;13.460;2022-09-09T01:44:32;96681.88;;;11.76;100.00
45731;BME280;31440;48.584;13.460;2022-09-09T01:47:00;96676.53;;;11.61;100.00
45731;BME280;31440;48.584;13.460;2022-09-09T01:49:25;96679.88;;;11.81;100.00
45731;BME280;31440;48.584;13.460;2022-09-09T01:51:53;96675.59;;;11.43;100.00
45731;BME280;31440;48.584;13.460;2022-09-09T01:54:27;96681.72;;;11.42;100.00
45731;BME280;31440;48.584;13.460;2022-09-09T01:57:33;96679.22;;;11.20;100.00
45731;BME280;31440;48.584;13.460;2022-09-09T02:00:08;96678.22;;;11.23;100.00
45731;BME280;31440;48.584;13.460;2022-09-09T02:05:37;96690.44;;;11.41;100.00
45731;BME280;31440;48.584;13.460;2022-09-09T02:08:19;96693.75;;;11.63;100.00
45731;BME280;31440;48.584;13.460;2022-09-09T02:14:16;96685.00;;;11.64;100.00
45731;BME280;31440;48.584;13.460;2022-09-09T02:16:57;96692.16;;;11.61;100.00
45731;BME280;31440;48.584;13.460;2022-09-09T02:19:46;96689.97;;;11.70;100.00
45731;BME280;31440;48.584;13.460;2022-09-09T02:22:27;96690.16;;;11.84;100.00
45731;BME280;31440;48.584;13.460;2022-09-09T02:24:57;96682.28;;;11.86;100.00
45731;BME280;31440;48.584;13.460;2022-09-09T02:27:26;96682.97;;;11.52;100.00
45731;BME280;31440;48.584;13.460;2022-09-09T02:29:53;96683.00;;;11.71;100.00
45731;BME280;31440;48.584;13.460;2022-09-09T02:32:34;96684.16;;;11.82;100.00
45731;BME280;31440;48.584;13.460;2022-09-09T02:35:14;96690.22;;;11.64;100.00
45731;BME280;31440;48.584;13.460;2022-09-09T02:37:42;96691.28;;;11.98;100.00
45731;BME280;31440;48.584;13.460;2022-09-09T02:40:13;96689.78;;;11.36;100.00
45731;BME280;31440;48.584;13.460;2022-09-09T02:42:46;96671.47;;;11.18;100.00
45731;BME280;31440;48.584;13.460;2022-09-09T02:45:16;96679.41;;;11.54;100.00
45731;BME280;31440;48.584;13.460;2022-09-09T02:50:55;96689.25;;;11.67;100.00
45731;BME280;31440;48.584;13.460;2022-09-09T02:53:39;96692.34;;;11.75;100.00
45731;BME280;31440;48.584;13.460;2022-09-09T02:56:16;96693.28;;;11.74;100.00
45731;BME280;31440;48.584;13.460;2022-09-09T02:58:45;96692.34;;;11.75;100.00
45731;BME280;31440;48.584;13.460;2022-09-09T03:01:12;96694.31;;;11.88;100.00
45731;BME280;31440;48.584;13.460;2022-09-09T03:03:38;96685.84;;;12.02;100.00
45731;BME280;31440;48.584;13.460;2022-09-09T03:06:10;96683.84;;;11.90;100.00
45731;BME280;31440;48.584;13.460;2022-09-09T03:08:38;96676.97;;;12.06;100.00
45731;BME280;31440;48.584;13.460;2022-09-09T03:11:03;96683.13;;;11.86;100.00
45731;BME280;31440;48.584;13.460;2022-09-09T03:13:32;96672.91;;;11.82;100.00
45731;BME280;31440;48.584;13.460;2022-09-09T03:15:59;96685.38;;;11.94;100.00
45731;BME280;31440;48.584;13.460;2022-09-09T03:18:26;96686.16;;;11.59;100.00
45731;BME280;31440;48.584;13.460;2022-09-09T03:20:53;96672.78;;;11.66;100.00
45731;BME280;31440;48.584;13.460;2022-09-09T03:23:20;96673.91;;;11.42;100.00
45731;BME280;31440;48.584;13.460;2022-09-09T03:25:48;96661.88;;;11.58;100.00
45731;BME280;31440;48.584;13.460;2022-09-09T03:28:15;96673.75;;;11.64;100.00
45731;BME280;31440;48.584;13.460;2022-09-09T03:30:42;96681.72;;;11.79;100.00
45731;BME280;31440;48.584;13.460;2022-09-09T03:33:08;96671.94;;;11.66;100.00
45731;BME280;31440;48.584;13.460;2022-09-09T03:35:34;96673.22;;;11.76;100.00
45731;BME280;31440;48.584;13.460;2022-09-09T03:38:00;96675.56;;;11.62;100.00
45731;BME280;31440;48.584;13.460;2022-09-09T03:40:27;96689.19;;;11.68;100.00
45731;BME280;31440;48.584;13.460;2022-09-09T03:42:53;96693.81;;;11.62;100.00
45731;BME280;31440;48.584;13.460;2022-09-09T03:45:18;96679.66;;;11.67;100.00
45731;BME280;31440;48.584;13.460;2022-09-09T03:47:44;96675.50;;;11.82;100.00
45731;BME280;31440;48.584;13.460;2022-09-09T03:50:10;96674.91;;;11.58;100.00
45731;BME280;31440;48.584;13.460;2022-09-09T03:52:41;96669.69;;;11.58;100.00
45731;BME280;31440;48.584;13.460;2022-09-09T03:55:14;96668.47;;;11.65;100.00
45731;BME280;31440;48.584;13.460;2022-09-09T03:57:40;96675.09;;;11.72;100.00
45731;BME280;31440;48.584;13.460;2022-09-09T04:00:08;96665.06;;;12.01;100.00
45731;BME280;31440;48.584;13.460;2022-09-09T04:02:46;96661.38;;;11.69;100.00
45731;BME280;31440;48.584;13.460;2022-09-09T04:05:14;96660.66;;;11.65;100.00
45731;BME280;31440;48.584;13.460;2022-09-09T04:07:42;96658.44;;;11.76;100.00
45731;BME280;31440;48.584;13.460;2022-09-09T04:10:08;96659.69;;;11.86;100.00
45731;BME280;31440;48.584;13.460;2022-09-09T04:12:37;96658.38;;;11.78;100.00
45731;BME280;31440;48.584;13.460;2022-09-09T04:15:03;96660.31;;;11.73;100.00
45731;BME280;31440;48.584;13.460;2022-09-09T04:17:29;96650.13;;;11.68;100.00
45731;BME280;31440;48.584;13.460;2022-09-09T04:19:56;96639.91;;;11.64;100.00
45731;BME280;31440;48.584;13.460;2022-09-09T04:22:22;96643.84;;;11.72;100.00
45731;BME280;31440;48.584;13.460;2022-09-09T04:24:48;96645.16;;;12.00;100.00
45731;BME280;31440;48.584;13.460;2022-09-09T04:27:15;96647.09;;;11.59;100.00
45731;BME280;31440;48.584;13.460;2022-09-09T04:29:40;96647.09;;;11.77;100.00
45731;BME280;31440;48.584;13.460;2022-09-09T04:32:07;96647.34;;;11.90;100.00
45731;BME280;31440;48.584;13.460;2022-09-09T04:34:32;96651.00;;;11.86;100.00
45731;BME280;31440;48.584;13.460;2022-09-09T04:36:58;96651.22;;;12.00;100.00
45731;BME280;31440;48.584;13.460;2022-09-09T04:39:26;96653.53;;;12.06;100.00
45731;BME280;31440;48.584;13.460;2022-09-09T04:41:52;96657.25;;;12.37;100.00
45731;BME280;31440;48.584;13.460;2022-09-09T04:44:20;96654.69;;;12.18;100.00
45731;BME280;31440;48.584;13.460;2022-09-09T04:46:46;96660.38;;;12.09;100.00
45731;BME280;31440;48.584;13.460;2022-09-09T04:49:12;96659.47;;;11.91;100.00
45731;BME280;31440;48.584;13.460;2022-09-09T04:51:38;96646.28;;;12.13;100.00
45731;BME280;31440;48.584;13.460;2022-09-09T04:54:04;96644.44;;;12.15;100.00
45731;BME280;31440;48.584;13.460;2022-09-09T04:56:31;96636.13;;;12.07;100.00
45731;BME280;31440;48.584;13.460;2022-09-09T04:58:58;96634.94;;;12.14;100.00
45731;BME280;31440;48.584;13.460;2022-09-09T05:01:34;96652.69;;;12.06;100.00
45731;BME280;31440;48.584;13.460;2022-09-09T05:04:02;96657.38;;;12.16;100.00
45731;BME280;31440;48.584;13.460;2022-09-09T05:06:28;96659.63;;;12.24;100.00
45731;BME280;31440;48.584;13.460;2022-09-09T05:08:58;96659.50;;;12.08;100.00
45731;BME280;31440;48.584;13.460;2022-09-09T05:11:29;96666.03;;;12.17;100.00
45731;BME280;31440;48.584;13.460;2022-09-09T05:14:02;96670.72;;;12.10;100.00
45731;BME280;31440;48.584;13.460;2022-09-09T05:16:30;96669.34;;;12.20;100.00
45731;BME280;31440;48.584;13.460;2022-09-09T05:18:56;96659.88;;;12.37;100.00
45731;BME280;31440;48.584;13.460;2022-09-09T05:21:23;96657.69;;;12.46;100.00
45731;BME280;31440;48.584;13.460;2022-09-09T05:23:51;96672.88;;;12.19;100.00
45731;BME280;31440;48.584;13.460;2022-09-09T05:26:20;96683.16;;;12.41;100.00
45731;BME280;31440;48.584;13.460;2022-09-09T05:28:48;96682.41;;;12.38;100.00
45731;BME280;31440;48.584;13.460;2022-09-09T05:31:16;96680.53;;;12.41;100.00
45731;BME280;31440;48.584;13.460;2022-09-09T05:33:45;96678.44;;;12.31;100.00
45731;BME280;31440;48.584;13.460;2022-09-09T05:36:14;96677.16;;;12.20;100.00
45731;BME280;31440;48.584;13.460;2022-09-09T05:38:41;96676.13;;;12.61;100.00
45731;BME280;31440;48.584;13.460;2022-09-09T05:41:09;96669.03;;;12.45;100.00
45731;BME280;31440;48.584;13.460;2022-09-09T05:43:37;96676.66;;;12.50;100.00
45731;BME280;31440;48.584;13.460;2022-09-09T05:46:05;96677.19;;;12.38;100.00
45731;BME280;31440;48.584;13.460;2022-09-09T05:48:33;96683.09;;;12.24;100.00
45731;BME280;31440;48.584;13.460;2022-09-09T05:51:23;96684.09;;;12.03;100.00
45731;BME280;31440;48.584;13.460;2022-09-09T05:53:50;96679.00;;;12.18;100.00
45731;BME280;31440;48.584;13.460;2022-09-09T05:56:23;96675.00;;;12.11;100.00
45731;BME280;31440;48.584;13.460;2022-09-09T05:58:51;96681.97;;;12.11;100.00
45731;BME280;31440;48.584;13.460;2022-09-09T06:01:25;96681.19;;;12.28;100.00
45731;BME280;31440;48.584;13.460;2022-09-09T06:03:51;96686.06;;;11.98;100.00
45731;BME280;31440;48.584;13.460;2022-09-09T06:06:20;96681.25;;;12.45;100.00
45731;BME280;31440;48.584;13.460;2022-09-09T06:08:47;96680.25;;;12.29;100.00
45731;BME280;31440;48.584;13.460;2022-09-09T06:11:23;96667.06;;;12.50;100.00
45731;BME280;31440;48.584;13.460;2022-09-09T06:13:49;96659.31;;;12.49;100.00
45731;BME280;31440;48.584;13.460;2022-09-09T06:16:19;96662.41;;;12.38;100.00
45731;BME280;31440;48.584;13.460;2022-09-09T06:18:46;96667.81;;;12.34;100.00
45731;BME280;31440;48.584;13.460;2022-09-09T06:21:19;96665.19;;;12.52;100.00
45731;BME280;31440;48.584;13.460;2022-09-09T06:23:46;96663.75;;;12.47;100.00
45731;BME280;31440;48.584;13.460;2022-09-09T06:28:45;96657.91;;;12.42;100.00
45731;BME280;31440;48.584;13.460;2022-09-09T06:31:14;96668.38;;;12.76;100.00
45731;BME280;31440;48.584;13.460;2022-09-09T06:33:43;96675.25;;;12.60;100.00
45731;BME280;31440;48.584;13.460;2022-09-09T06:36:19;96672.00;;;13.07;100.00
45731;BME280;31440;48.584;13.460;2022-09-09T06:38:45;96662.28;;;13.10;100.00
45731;BME280;31440;48.584;13.460;2022-09-09T06:41:15;96665.94;;;13.06;100.00
45731;BME280;31440;48.584;13.460;2022-09-09T06:43:43;96673.03;;;13.04;100.00
45731;BME280;31440;48.584;13.460;2022-09-09T06:46:13;96677.47;;;13.19;100.00
45731;BME280;31440;48.584;13.460;2022-09-09T06:48:40;96673.09;;;13.20;100.00
45731;BME280;31440;48.584;13.460;2022-09-09T06:51:18;96673.56;;;12.93;100.00
45731;BME280;31440;48.584;13.460;2022-09-09T06:53:46;96678.88;;;12.92;100.00
45731;BME280;31440;48.584;13.460;2022-09-09T06:58:42;96666.88;;;13.22;100.00
45731;BME280;31440;48.584;13.460;2022-09-09T07:01:13;96671.47;;;13.50;100.00
45731;BME280;31440;48.584;13.460;2022-09-09T07:03:39;96689.19;;;13.28;100.00
45731;BME280;31440;48.584;13.460;2022-09-09T07:06:06;96696.28;;;13.59;100.00
45731;BME280;31440;48.584;13.460;2022-09-09T07:08:33;96695.78;;;13.35;100.00
45731;BME280;31440;48.584;13.460;2022-09-09T07:11:03;96688.56;;;13.73;100.00
45731;BME280;31440;48.584;13.460;2022-09-09T07:13:35;96679.94;;;13.55;100.00
45731;BME280;31440;48.584;13.460;2022-09-09T07:16:08;96677.50;;;13.35;100.00
45731;BME280;31440;48.584;13.460;2022-09-09T07:18:35;96677.91;;;13.60;100.00
45731;BME280;31440;48.584;13.460;2022-09-09T07:21:01;96672.56;;;13.46;100.00
45731;BME280;31440;48.584;13.460;2022-09-09T07:23:28;96680.38;;;13.63;100.00
45731;BME280;31440;48.584;13.460;2022-09-09T07:25:54;96684.88;;;13.93;100.00
45731;BME280;31440;48.584;13.460;2022-09-09T07:28:21;96684.34;;;13.71;100.00
45731;BME280;31440;48.584;13.460;2022-09-09T07:30:57;96692.28;;;14.01;100.00
45731;BME280;31440;48.584;13.460;2022-09-09T07:33:25;96687.16;;;13.50;100.00
45731;BME280;31440;48.584;13.460;2022-09-09T07:35:51;96690.06;;;13.77;100.00
45731;BME280;31440;48.584;13.460;2022-09-09T07:38:18;96687.06;;;14.01;100.00
45731;BME280;31440;48.584;13.460;2022-09-09T07:40:44;96692.53;;;13.96;100.00
45731;BME280;31440;48.584;13.460;2022-09-09T07:43:10;96702.81;;;13.68;100.00
45731;BME280;31440;48.584;13.460;2022-09-09T07:45:36;96710.50;;;14.02;100.00
45731;BME280;31440;48.584;13.460;2022-09-09T07:48:02;96710.09;;;13.94;100.00
45731;BME280;31440;48.584;13.460;2022-09-09T07:50:30;96721.66;;;14.21;100.00
45731;BME280;31440;48.584;13.460;2022-09-09T07:52:56;96729.97;;;13.96;100.00
45731;BME280;31440;48.584;13.460;2022-09-09T07:55:23;96735.25;;;14.28;100.00
45731;BME280;31440;48.584;13.460;2022-09-09T07:57:55;96739.09;;;14.52;100.00
45731;BME280;31440;48.584;13.460;2022-09-09T08:00:21;96734.75;;;14.98;100.00
45731;BME280;31440;48.584;13.460;2022-09-09T08:02:52;96724.31;;;14.83;100.00
45731;BME280;31440;48.584;13.460;2022-09-09T08:05:19;96717.34;;;14.97;100.00
45731;BME280;31440;48.584;13.460;2022-09-09T08:07:45;96709.13;;;14.58;100.00
45731;BME280;31440;48.584;13.460;2022-09-09T08:10:11;96700.00;;;14.81;100.00
45731;BME280;31440;48.584;13.460;2022-09-09T08:12:39;96695.19;;;14.73;100.00
45731;BME280;31440;48.584;13.460;2022-09-09T08:15:06;96706.59;;;14.72;100.00
45731;BME280;31440;48.584;13.460;2022-09-09T08:17:32;96700.63;;;14.84;100.00
45731;BME280;31440;48.584;13.460;2022-09-09T08:20:02;96704.16;;;14.99;100.00
45731;BME280;31440;48.584;13.460;2022-09-09T08:22:31;96704.94;;;14.85;100.00
45731;BME280;31440;48.584;13.460;2022-09-09T08:24:56;96699.69;;;14.55;100.00
45731;BME280;31440;48.584;13.460;2022-09-09T08:27:22;96697.09;;;15.15;100.00
45731;BME280;31440;48.584;13.460;2022-09-09T08:29:49;96696.44;;;15.40;100.00
45731;BME280;31440;48.584;13.460;2022-09-09T08:32:15;96698.69;;;15.32;100.00
45731;BME280;31440;48.584;13.460;2022-09-09T08:34:43;96706.91;;;15.26;100.00
45731;BME280;31440;48.584;13.460;2022-09-09T08:37:14;96712.72;;;15.31;100.00
45731;BME280;31440;48.584;13.460;2022-09-09T08:39:41;96719.56;;;15.48;100.00
45731;BME280;31440;48.584;13.460;2022-09-09T08:42:30;96724.25;;;15.57;100.00
45731;BME280;31440;48.584;13.460;2022-09-09T08:45:19;96730.84;;;15.64;100.00
45731;BME280;31440;48.584;13.460;2022-09-09T08:48:00;96729.84;;;16.36;100.00
45731;BME280;31440;48.584;13.460;2022-09-09T08:50:34;96743.75;;;15.95;100.00
45731;BME280;31440;48.584;13.460;2022-09-09T08:53:20;96742.34;;;16.04;100.00
45731;BME280;31440;48.584;13.460;2022-09-09T08:55:49;96738.31;;;16.27;100.00
45731;BME280;31440;48.584;13.460;2022-09-09T08:58:25;96738.63;;;16.35;100.00
45731;BME280;31440;48.584;13.460;2022-09-09T09:09:02;96723.38;;;16.68;100.00
45731;BME280;31440;48.584;13.460;2022-09-09T09:11:38;96732.69;;;16.19;100.00
45731;BME280;31440;48.584;13.460;2022-09-09T09:14:17;96729.97;;;17.01;100.00
45731;BME280;31440;48.584;13.460;2022-09-09T09:17:00;96730.41;;;16.68;100.00
45731;BME280;31440;48.584;13.460;2022-09-09T09:19:28;96737.16;;;17.12;100.00
45731;BME280;31440;48.584;13.460;2022-09-09T09:22:04;96742.34;;;17.26;100.00
45731;BME280;31440;48.584;13.460;2022-09-09T09:27:18;96740.03;;;17.34;100.00
45731;BME280;31440;48.584;13.460;2022-09-09T09:29:50;96725.53;;;17.41;100.00
45731;BME280;31440;48.584;13.460;2022-09-09T09:32:18;96739.69;;;17.13;100.00
45731;BME280;31440;48.584;13.460;2022-09-09T09:34:51;96743.72;;;16.92;100.00
45731;BME280;31440;48.584;13.460;2022-09-09T09:37:27;96743.16;;;17.14;100.00
45731;BME280;31440;48.584;13.460;2022-09-09T09:39:53;96747.41;;;16.89;100.00
45731;BME280;31440;48.584;13.460;2022-09-09T09:42:19;96754.53;;;16.46;100.00
45731;BME280;31440;48.584;13.460;2022-09-09T09:44:47;96758.94;;;16.46;100.00
45731;BME280;31440;48.584;13.460;2022-09-09T09:47:20;96758.97;;;16.60;100.00
45731;BME280;31440;48.584;13.460;2022-09-09T09:50:17;96753.97;;;16.82;100.00
45731;BME280;31440;48.584;13.460;2022-09-09T09:52:53;96761.28;;;16.50;100.00
45731;BME280;31440;48.584;13.460;2022-09-09T09:55:21;96764.53;;;16.13;100.00
45731;BME280;31440;48.584;13.460;2022-09-09T09:57:48;96761.09;;;16.53;100.00
45731;BME280;31440;48.584;13.460;2022-09-09T10:00:15;96760.53;;;16.48;100.00
45731;BME280;31440;48.584;13.460;2022-09-09T10:02:48;96755.66;;;16.83;100.00
45731;BME280;31440;48.584;13.460;2022-09-09T10:05:26;96763.63;;;15.85;100.00
45731;BME280;31440;48.584;13.460;2022-09-09T10:08:12;96764.91;;;15.92;100.00
45731;BME280;31440;48.584;13.460;2022-09-09T10:30:02;96792.31;;;15.28;100.00
45731;BME280;31440;48.584;13.460;2022-09-09T10:32:56;96796.53;;;15.31;100.00
45731;BME280;31440;48.584;13.460;2022-09-09T10:35:39;96793.81;;;15.18;100.00
45731;BME280;31440;48.584;13.460;2022-09-09T10:38:27;96787.19;;;15.27;100.00
45731;BME280;31440;48.584;13.460;2022-09-09T10:43:59;96801.06;;;14.83;100.00
45731;BME280;31440;48.584;13.460;2022-09-09T10:52:15;96791.00;;;14.76;100.00
45731;BME280;31440;48.584;13.460;2022-09-09T10:55:01;96798.28;;;15.16;100.00
45731;BME280;31440;48.584;13.460;2022-09-09T10:57:50;96792.00;;;14.89;100.00
45731;BME280;31440;48.584;13.460;2022-09-09T11:00:22;96802.25;;;15.08;100.00
45731;BME280;31440;48.584;13.460;2022-09-09T11:03:00;96803.34;;;15.04;100.00
45731;BME280;31440;48.584;13.460;2022-09-09T11:05:31;96797.03;;;15.08;100.00
45731;BME280;31440;48.584;13.460;2022-09-09T11:08:02;96795.94;;;15.12;100.00
45731;BME280;31440;48.584;13.460;2022-09-09T11:16:28;96794.97;;;14.67;100.00
45731;BME280;31440;48.584;13.460;2022-09-09T11:19:19;96796.72;;;14.98;100.00
45731;BME280;31440;48.584;13.460;2022-09-09T11:21:48;96796.75;;;14.82;100.00
45731;BME280;31440;48.584;13.460;2022-09-09T11:27:13;96784.75;;;14.78;100.00
45731;BME280;31440;48.584;13.460;2022-09-09T11:32:39;96789.06;;;14.79;100.00
45731;BME280;31440;48.584;13.460;2022-09-09T11:35:19;96787.84;;;15.00;100.00
45731;BME280;31440;48.584;13.460;2022-09-09T11:40:34;96781.81;;;15.14;100.00
45731;BME280;31440;48.584;13.460;2022-09-09T11:45:54;96790.56;;;14.99;100.00
45731;BME280;31440;48.584;13.460;2022-09-09T11:48:34;96786.94;;;15.02;100.00
45731;BME280;31440;48.584;13.460;2022-09-09T11:51:03;96783.84;;;15.09;100.00
45731;BME280;31440;48.584;13.460;2022-09-09T11:53:31;96784.34;;;15.16;100.00
45731;BME280;31440;48.584;13.460;2022-09-09T11:56:06;96791.19;;;15.62;100.00
45731;BME280;31440;48.584;13.460;2022-09-09T11:58:43;96794.38;;;15.53;100.00
45731;BME280;31440;48.584;13.460;2022-09-09T12:06:50;96782.66;;;15.59;100.00
45731;BME280;31440;48.584;13.460;2022-09-09T12:09:43;96787.63;;;15.63;100.00
45731;BME280;31440;48.584;13.460;2022-09-09T12:19:39;96779.53;;;15.82;100.00
45731;BME280;31440;48.584;13.460;2022-09-09T12:25:23;96782.50;;;15.76;100.00
45731;BME280;31440;48.584;13.460;2022-09-09T12:28:01;96779.44;;;15.98;100.00
45731;BME280;31440;48.584;13.460;2022-09-09T12:30:34;96780.28;;;15.98;100.00
45731;BME280;31440;48.584;13.460;2022-09-09T12:33:08;96775.50;;;16.05;100.00
45731;BME280;31440;48.584;13.460;2022-09-09T12:35:35;96766.06;;;15.44;100.00
45731;BME280;31440;48.584;13.460;2022-09-09T12:38:04;96765.66;;;15.80;100.00
45731;BME280;31440;48.584;13.460;2022-09-09T12:40:33;96762.78;;;15.71;100.00
45731;BME280;31440;48.584;13.460;2022-09-09T12:43:21;96764.91;;;16.21;100.00
45731;BME280;31440;48.584;13.460;2022-09-09T12:45:49;96758.44;;;16.12;100.00
45731;BME280;31440;48.584;13.460;2022-09-09T12:48:18;96756.41;;;15.89;100.00
45731;BME280;31440;48.584;13.460;2022-09-09T12:50:48;96765.75;;;15.93;100.00
45731;BME280;31440;48.584;13.460;2022-09-09T12:55:58;96760.63;;;16.06;100.00
45731;BME280;31440;48.584;13.460;2022-09-09T12:58:25;96753.00;;;16.15;100.00
45731;BME280;31440;48.584;13.460;2022-09-09T13:00:53;96757.16;;;16.05;100.00
45731;BME280;31440;48.584;13.460;2022-09-09T13:03:22;96756.84;;;15.95;100.00
45731;BME280;31440;48.584;13.460;2022-09-09T13:05:48;96753.41;;;16.09;100.00
45731;BME280;31440;48.584;13.460;2022-09-09T13:08:15;96744.22;;;16.02;100.00
45731;BME280;31440;48.584;13.460;2022-09-09T13:10:47;96741.94;;;16.10;100.00
45731;BME280;31440;48.584;13.460;2022-09-09T13:13:21;96747.75;;;16.15;100.00
45731;BME280;31440;48.584;13.460;2022-09-09T13:15:52;96755.38;;;15.91;100.00
45731;BME280;31440;48.584;13.460;2022-09-09T13:18:22;96749.34;;;16.18;100.00
45731;BME280;31440;48.584;13.460;2022-09-09T13:20:49;96751.09;;;16.31;100.00
45731;BME280;31440;48.584;13.460;2022-09-09T13:23:16;96751.81;;;16.48;100.00
45731;BME280;31440;48.584;13.460;2022-09-09T13:25:59;96746.59;;;16.33;100.00
45731;BME280;31440;48.584;13.460;2022-09-09T13:28:28;96742.66;;;16.41;100.00
45731;BME280;31440;48.584;13.460;2022-09-09T13:31:05;96740.00;;;16.55;100.00
45731;BME280;31440;48.584;13.460;2022-09-09T13:33:37;96728.53;;;16.70;100.00
45731;BME280;31440;48.584;13.460;2022-09-09T13:38:33;96717.94;;;16.71;100.00
45731;BME280;31440;48.584;13.460;2022-09-09T13:41:03;96713.31;;;17.15;100.00
45731;BME280;31440;48.584;13.460;2022-09-09T13:43:34;96708.94;;;16.88;100.00
45731;BME280;31440;48.584;13.460;2022-09-09T13:46:03;96706.31;;;16.76;100.00
45731;BME280;31440;48.584;13.460;2022-09-09T13:48:29;96696.94;;;17.24;100.00
45731;BME280;31440;48.584;13.460;2022-09-09T13:51:27;96701.31;;;16.98;100.00
45731;BME280;31440;48.584;13.460;2022-09-09T13:53:54;96703.31;;;17.20;100.00
45731;BME280;31440;48.584;13.460;2022-09-09T13:56:20;96698.50;;;17.90;100.00
45731;BME280;31440;48.584;13.460;2022-09-09T13:58:46;96699.88;;;17.45;100.00
45731;BME280;31440;48.584;13.460;2022-09-09T14:01:11;96698.75;;;17.61;100.00
45731;BME280;31440;48.584;13.460;2022-09-09T14:03:37;96692.13;;;17.68;100.00
45731;BME280;31440;48.584;13.460;2022-09-09T14:06:02;96698.56;;;17.64;100.00
45731;BME280;31440;48.584;13.460;2022-09-09T14:08:29;96694.44;;;17.73;100.00
45731;BME280;31440;48.584;13.460;2022-09-09T14:11:03;96685.31;;;17.66;100.00
45731;BME280;31440;48.584;13.460;2022-09-09T14:13:29;96680.16;;;17.52;100.00
45731;BME280;31440;48.584;13.460;2022-09-09T14:15:54;96690.53;;;17.40;100.00
45731;BME280;31440;48.584;13.460;2022-09-09T14:18:20;96682.94;;;17.99;100.00
45731;BME280;31440;48.584;13.460;2022-09-09T14:20:47;96693.03;;;17.93;100.00
45731;BME280;31440;48.584;13.460;2022-09-09T14:23:13;96693.41;;;17.63;100.00
45731;BME280;31440;48.584;13.460;2022-09-09T14:25:40;96696.44;;;17.82;100.00
45731;BME280;31440;48.584;13.460;2022-09-09T14:28:09;96696.94;;;17.74;100.00
45731;BME280;31440;48.584;13.460;2022-09-09T14:30:34;96692.25;;;17.67;100.00
45731;BME280;31440;48.584;13.460;2022-09-09T14:33:00;96690.97;;;17.47;100.00
45731;BME280;31440;48.584;13.460;2022-09-09T14:35:25;96688.00;;;17.39;100.00
45731;BME280;31440;48.584;13.460;2022-09-09T14:37:51;96677.72;;;17.61;100.00
45731;BME280;31440;48.584;13.460;2022-09-09T14:40:17;96675.97;;;17.98;100.00
45731;BME280;31440;48.584;13.460;2022-09-09T14:42:42;96677.31;;;17.67;100.00
45731;BME280;31440;48.584;13.460;2022-09-09T14:45:08;96674.88;;;17.64;100.00
45731;BME280;31440;48.584;13.460;2022-09-09T14:47:34;96682.16;;;18.47;100.00
45731;BME280;31440;48.584;13.460;2022-09-09T14:50:00;96684.94;;;18.32;100.00
45731;BME280;31440;48.584;13.460;2022-09-09T14:52:29;96687.75;;;18.66;100.00
45731;BME280;31440;48.584;13.460;2022-09-09T14:54:55;96681.78;;;18.27;100.00
45731;BME280;31440;48.584;13.460;2022-09-09T14:57:20;96679.31;;;18.13;100.00
45731;BME280;31440;48.584;13.460;2022-09-09T14:59:46;96682.97;;;18.23;100.00
45731;BME280;31440;48.584;13.460;2022-09-09T15:02:12;96685.19;;;18.53;100.00